Olympia, Kentucky
Current Conditions -  °F | °C
As of 1:30 AM on Wednesday 28 Jan 2015 (Local Time) from KSYM Reporting Station
Clear Clear  
Wind Chill: 18°   Ceiling: Unl
Heat Index: 18°   Visibility: 10mi
Dew Point: 12°   Wind: 0mph
Humidity: 79%   Direction: NA
Pressure: 30.25"   Gusts: NA
Location:  38.1°N, 83.7°W
Report Text: KSYM 280630Z AUTO 00000KT 10SM CLR M08/M11 A3025 RMK AO2
Loading
Personal Weather Stations






























Interactive Weather Map New forecast layout! Learn more

10-Day Weather Forecast

Advertisements
Track Severe Weather on mobile